Time;durP1;ratioP1;P1;durP2;ratioP2;P2;SDS_P1;SDS_P2;PMS_P1;PMS_P2;Temp;Humidity;BMP_temperature;BMP_pressure;BME280_temperature;BME280_humidity;BME280_pressure;Samples;Min_cycle;Max_cycle;Signal;HPM_P1;HPM_P2
2022/09/09 00:00:18;;;;;;;5.07;3.63;;;15.10;99.90;;;;;;2122853;27;20016;-75
2022/09/09 00:01:46;;;;;;;4.72;3.47;;;15.10;99.90;;;;;;2128309;27;20023;-75
2022/09/09 00:03:22;;;;;;;5.97;3.35;;;15.10;99.90;;;;;;2115991;27;20035;-74
2022/09/09 00:04:52;;;;;;;4.43;3.33;;;15.10;99.90;;;;;;2098861;28;20027;-77
2022/09/09 00:06:13;;;;;;;4.38;3.40;;;15.10;99.90;;;;;;2111846;27;20034;-74
2022/09/09 00:07:48;;;;;;;4.25;3.13;;;15.00;99.90;;;;;;2121901;27;20028;-76
2022/09/09 00:08:57;;;;;;;3.63;2.90;;;15.00;99.90;;;;;;2118235;27;20027;-76
2022/09/09 00:10:18;;;;;;;4.68;2.90;;;15.00;99.90;;;;;;2122139;27;20516;-76
2022/09/09 00:11:27;;;;;;;3.38;2.80;;;15.00;99.90;;;;;;2122565;27;20026;-77
2022/09/09 00:12:57;;;;;;;4.65;3.00;;;15.00;99.90;;;;;;2121868;27;20019;-75
2022/09/09 00:14:04;;;;;;;3.70;2.80;;;15.00;99.90;;;;;;2114008;27;20031;-77
2022/09/09 00:15:12;;;;;;;4.43;2.80;;;15.00;99.90;;;;;;2115460;27;20036;-75
2022/09/09 00:16:23;;;;;;;3.53;2.88;;;15.00;99.90;;;;;;2114581;27;20044;-75
2022/09/09 00:17:57;;;;;;;3.83;2.40;;;15.00;99.90;;;;;;2120499;27;20110;-77
2022/09/09 00:19:17;;;;;;;4.43;3.20;;;15.00;99.90;;;;;;2104575;27;20043;-75
2022/09/09 00:20:23;;;;;;;3.22;2.70;;;15.00;99.90;;;;;;2123568;27;20540;-74
2022/09/09 00:21:35;;;;;;;3.83;3.05;;;15.00;99.90;;;;;;2114445;27;20024;-75
2022/09/09 00:22:43;;;;;;;4.95;3.00;;;14.90;99.90;;;;;;2122895;27;20459;-75
2022/09/09 00:23:54;;;;;;;4.30;2.97;;;14.90;99.90;;;;;;2121889;27;20035;-78
2022/09/09 00:25:12;;;;;;;3.70;3.17;;;14.90;99.90;;;;;;2122075;27;20027;-74
2022/09/09 00:26:35;;;;;;;3.85;3.03;;;14.90;99.90;;;;;;2130209;27;20062;-75
2022/09/09 00:27:45;;;;;;;4.03;3.05;;;14.90;99.90;;;;;;2116629;27;20055;-76
2022/09/09 00:29:11;;;;;;;3.53;2.75;;;14.90;99.90;;;;;;2122084;27;20478;-75
2022/09/09 00:30:16;;;;;;;3.78;2.92;;;14.80;99.90;;;;;;2103002;27;20561;-75
2022/09/09 00:31:24;;;;;;;3.53;3.13;;;14.80;99.90;;;;;;2106008;28;20039;-77
2022/09/09 00:32:30;;;;;;;4.07;3.05;;;14.80;99.90;;;;;;2115079;27;20505;-78
2022/09/09 00:33:31;;;;;;;4.43;3.25;;;14.80;99.90;;;;;;2123169;27;20019;-77
2022/09/09 00:34:33;;;;;;;4.18;3.10;;;14.80;99.90;;;;;;2113797;28;20252;-77
2022/09/09 00:35:44;;;;;;;4.50;3.30;;;14.80;99.90;;;;;;2105599;28;20131;-77
2022/09/09 00:36:48;;;;;;;5.72;3.25;;;14.80;99.90;;;;;;2115314;27;20066;-78
2022/09/09 00:37:53;;;;;;;4.07;3.13;;;14.80;99.90;;;;;;2122224;27;20019;-78
2022/09/09 00:38:59;;;;;;;3.80;3.30;;;14.70;99.90;;;;;;2123162;27;20485;-78
2022/09/09 00:40:07;;;;;;;5.60;3.28;;;14.80;99.90;;;;;;2122463;27;20031;-78
2022/09/09 00:41:47;;;;;;;5.00;3.40;;;14.70;99.90;;;;;;2122759;27;20079;-76
2022/09/09 00:43:13;;;;;;;4.50;3.50;;;14.70;99.90;;;;;;2122420;27;20031;-76
2022/09/09 00:44:34;;;;;;;3.92;3.10;;;14.70;99.90;;;;;;2109467;27;20408;-76
2022/09/09 00:45:49;;;;;;;3.58;3.28;;;14.70;99.90;;;;;;2122829;27;20425;-76
2022/09/09 00:47:02;;;;;;;4.00;3.50;;;14.60;99.90;;;;;;2116844;27;20122;-77
2022/09/09 00:48:11;;;;;;;3.85;3.20;;;14.60;99.90;;;;;;2117277;27;20035;-77
2022/09/09 00:49:48;;;;;;;4.70;3.33;;;14.60;99.90;;;;;;2116387;27;20535;-76
2022/09/09 00:51:08;;;;;;;3.75;3.22;;;14.60;99.90;;;;;;2110666;28;20027;-77
2022/09/09 00:52:42;;;;;;;4.25;3.10;;;14.60;99.90;;;;;;2114911;28;20022;-76
2022/09/09 00:54:16;;;;;;;4.78;3.22;;;14.60;99.90;;;;;;2115758;28;20114;-77
2022/09/09 00:55:32;;;;;;;5.75;3.15;;;14.60;99.90;;;;;;2108157;28;20126;-77
2022/09/09 00:56:42;;;;;;;4.60;3.33;;;14.60;99.90;;;;;;2110254;28;20061;-78
2022/09/09 00:57:45;;;;;;;5.28;3.50;;;14.60;99.90;;;;;;2107906;28;20088;-77
2022/09/09 00:59:20;;;;;;;4.90;3.35;;;14.60;99.90;;;;;;2116099;28;20028;-77
2022/09/09 01:00:33;;;;;;;4.88;3.20;;;14.60;99.90;;;;;;2108757;28;20040;-76
2022/09/09 01:01:35;;;;;;;3.92;3.25;;;14.60;99.90;;;;;;2117493;28;20507;-77
2022/09/09 01:02:49;;;;;;;4.35;3.30;;;14.60;99.90;;;;;;2123468;28;20075;-77
2022/09/09 01:03:55;;;;;;;4.05;3.05;;;14.70;99.90;;;;;;2122654;27;20043;-77
2022/09/09 01:05:07;;;;;;;5.95;3.80;;;14.60;99.90;;;;;;2122515;27;20056;-76
2022/09/09 01:06:31;;;;;;;5.03;3.30;;;14.70;99.90;;;;;;2116440;28;20578;-77
2022/09/09 01:07:32;;;;;;;4.43;3.30;;;14.70;99.90;;;;;;2119362;27;20023;-76
2022/09/09 01:08:42;;;;;;;4.40;3.28;;;14.60;99.90;;;;;;2124072;27;20054;-76
2022/09/09 01:09:55;;;;;;;4.40;3.20;;;14.60;99.90;;;;;;2116926;27;20441;-76
2022/09/09 01:10:58;;;;;;;5.13;3.28;;;14.60;99.90;;;;;;2124584;27;20023;-76
2022/09/09 01:12:26;;;;;;;4.18;3.45;;;14.60;99.90;;;;;;2126432;27;20027;-77
2022/09/09 01:13:36;;;;;;;5.22;3.25;;;14.60;99.90;;;;;;2110699;28;20023;-77
2022/09/09 01:14:48;;;;;;;5.13;3.58;;;14.60;99.90;;;;;;2117142;27;20493;-77
2022/09/09 01:15:53;;;;;;;5.28;3.30;;;14.60;99.90;;;;;;2121828;27;20027;-75
2022/09/09 01:16:59;;;;;;;5.00;3.30;;;14.60;99.90;;;;;;2132966;27;20027;-76
2022/09/09 01:18:12;;;;;;;4.13;3.22;;;14.60;99.90;;;;;;2133001;27;20068;-77
2022/09/09 01:19:33;;;;;;;3.83;3.10;;;14.60;99.90;;;;;;2128115;27;20027;-77
2022/09/09 01:21:02;;;;;;;3.38;3.08;;;14.60;99.90;;;;;;2121367;27;20027;-76
2022/09/09 01:22:26;;;;;;;3.83;3.30;;;14.60;99.90;;;;;;2124117;27;20031;-76
2022/09/09 01:23:36;;;;;;;5.07;3.28;;;14.50;99.90;;;;;;2090052;28;20549;-76
2022/09/09 01:25:15;;;;;;;4.40;3.10;;;14.50;99.90;;;;;;2113286;27;20502;-75
2022/09/09 01:26:44;;;;;;;4.38;3.30;;;14.50;99.90;;;;;;2121804;27;20027;-77
2022/09/09 01:28:24;;;;;;;4.47;3.58;;;14.50;99.90;;;;;;2116017;28;20024;-78
2022/09/09 01:29:27;;;;;;;5.07;3.60;;;14.50;99.90;;;;;;2120848;27;20019;-77
2022/09/09 01:30:28;;;;;;;4.18;3.10;;;14.40;99.90;;;;;;2123950;27;20026;-75
2022/09/09 01:31:36;;;;;;;3.75;3.08;;;14.40;99.90;;;;;;2123678;27;20043;-76
2022/09/09 01:32:41;;;;;;;5.13;3.20;;;14.40;99.90;;;;;;2116203;27;20070;-77
2022/09/09 01:33:43;;;;;;;4.07;3.15;;;14.40;99.90;;;;;;2115897;27;20106;-76
2022/09/09 01:34:44;;;;;;;5.13;2.85;;;14.50;99.90;;;;;;2115132;28;20035;-76
2022/09/09 01:35:56;;;;;;;5.15;2.85;;;14.40;99.90;;;;;;2115193;28;20030;-79
2022/09/09 01:37:05;;;;;;;5.38;3.03;;;14.50;99.90;;;;;;2109138;28;20028;-77
2022/09/09 01:38:06;;;;;;;3.50;2.90;;;14.50;99.90;;;;;;2108833;27;20027;-77
2022/09/09 01:39:08;;;;;;;3.03;2.70;;;14.50;99.90;;;;;;2115707;27;20020;-76
2022/09/09 01:40:10;;;;;;;3.15;2.85;;;14.50;99.90;;;;;;2132244;27;20050;-77
2022/09/09 01:41:12;;;;;;;3.08;2.78;;;14.50;99.90;;;;;;2123972;27;20023;-77
2022/09/09 01:42:28;;;;;;;3.35;2.78;;;14.50;99.90;;;;;;2125693;27;20014;-76
2022/09/09 01:43:29;;;;;;;3.50;2.35;;;14.50;99.90;;;;;;2123484;27;20050;-76
2022/09/09 01:44:31;;;;;;;3.08;2.78;;;14.50;99.90;;;;;;2123713;27;20499;-76
2022/09/09 01:47:48;;;;;;;4.72;2.97;;;14.50;99.90;;;;;;2132985;27;20015;-76
2022/09/09 01:48:56;;;;;;;3.20;2.83;;;14.50;99.90;;;;;;2132302;27;20035;-77
2022/09/09 01:49:59;;;;;;;3.38;2.78;;;14.40;99.90;;;;;;2123899;27;20481;-77
2022/09/09 01:51:02;;;;;;;3.40;2.70;;;14.40;99.90;;;;;;2132223;27;20433;-77
2022/09/09 01:52:03;;;;;;;3.72;2.88;;;14.40;99.90;;;;;;2114943;28;20031;-76
2022/09/09 01:53:12;;;;;;;3.08;2.60;;;14.40;99.90;;;;;;2124427;27;20041;-77
2022/09/09 01:54:13;;;;;;;4.03;2.70;;;14.40;99.90;;;;;;2131847;27;20541;-77
2022/09/09 01:55:15;;;;;;;3.15;2.85;;;14.40;99.90;;;;;;2123582;27;20092;-77
2022/09/09 01:56:41;;;;;;;3.33;2.72;;;14.40;99.90;;;;;;2123965;27;20023;-76
2022/09/09 01:57:55;;;;;;;3.20;2.90;;;14.40;99.90;;;;;;2127076;27;20046;-77
2022/09/09 01:59:31;;;;;;;3.88;3.00;;;14.40;99.90;;;;;;2125243;27;20031;-77
2022/09/09 02:00:37;;;;;;;3.20;2.90;;;14.40;99.90;;;;;;2114947;27;20068;-76
2022/09/09 02:01:48;;;;;;;3.40;2.55;;;14.30;99.90;;;;;;2125929;27;20023;-77
2022/09/09 02:03:43;;;;;;;3.80;3.00;;;14.40;99.90;;;;;;2116397;27;20106;-75
2022/09/09 02:05:04;;;;;;;3.63;2.85;;;14.30;99.90;;;;;;2094559;28;20024;-76
2022/09/09 02:06:20;;;;;;;3.78;2.97;;;14.30;99.90;;;;;;2093447;28;20171;-75
2022/09/09 02:07:37;;;;;;;4.00;3.00;;;14.30;99.90;;;;;;2125519;27;20055;-77
2022/09/09 02:08:51;;;;;;;3.40;3.00;;;14.30;99.90;;;;;;2132298;27;20033;-77
2022/09/09 02:10:05;;;;;;;4.25;2.97;;;14.30;99.90;;;;;;2125829;27;20023;-77
2022/09/09 02:11:17;;;;;;;3.47;2.88;;;14.20;99.90;;;;;;2127400;27;20064;-77
2022/09/09 02:12:45;;;;;;;3.63;2.88;;;14.30;99.90;;;;;;2135039;27;20027;-77
2022/09/09 02:13:48;;;;;;;3.20;2.90;;;14.30;99.90;;;;;;2135461;27;20030;-76
2022/09/09 02:14:55;;;;;;;3.28;2.70;;;14.30;99.90;;;;;;2119787;27;20146;-76
2022/09/09 02:16:03;;;;;;;2.85;2.65;;;14.30;99.90;;;;;;2121515;27;20016;-77
2022/09/09 02:17:10;;;;;;;3.00;2.70;;;14.30;99.90;;;;;;2128384;27;20567;-77
2022/09/09 02:19:13;;;;;;;3.58;2.75;;;14.20;99.90;;;;;;2119090;27;20034;-77
2022/09/09 02:20:34;;;;;;;4.80;2.78;;;14.20;99.90;;;;;;2124641;27;20029;-78
2022/09/09 02:21:39;;;;;;;2.95;2.75;;;14.20;99.90;;;;;;2124836;27;20114;-78
2022/09/09 02:22:44;;;;;;;3.78;3.00;;;14.20;99.90;;;;;;2116624;28;20047;-77
2022/09/09 02:23:51;;;;;;;3.35;3.00;;;14.20;99.90;;;;;;2108300;27;20024;-76
2022/09/09 02:24:56;;;;;;;5.55;2.97;;;14.20;99.90;;;;;;2108522;27;20039;-77
2022/09/09 02:26:01;;;;;;;2.80;2.60;;;14.10;99.90;;;;;;2108846;27;20096;-77
2022/09/09 02:27:08;;;;;;;2.95;2.72;;;14.10;99.90;;;;;;2116820;27;20032;-76
2022/09/09 02:28:12;;;;;;;3.05;2.75;;;14.10;99.90;;;;;;2116507;27;20031;-76
2022/09/09 02:29:33;;;;;;;3.13;2.83;;;14.10;99.90;;;;;;2124054;27;20042;-77
2022/09/09 02:30:37;;;;;;;4.43;2.55;;;14.10;99.90;;;;;;2119226;27;20027;-77
2022/09/09 02:31:40;;;;;;;5.43;2.95;;;14.10;99.90;;;;;;2116830;27;20067;-76
2022/09/09 02:32:51;;;;;;;4.05;2.80;;;14.10;99.90;;;;;;2115308;27;20024;-77
2022/09/09 02:33:57;;;;;;;2.92;2.70;;;14.10;99.90;;;;;;2114781;27;20031;-77
2022/09/09 02:35:04;;;;;;;2.78;2.58;;;14.00;99.90;;;;;;2114862;27;20024;-76
2022/09/09 02:36:08;;;;;;;3.20;2.40;;;14.00;99.90;;;;;;2122712;27;20027;-77
2022/09/09 02:37:10;;;;;;;2.65;2.45;;;14.00;99.90;;;;;;2123321;27;20023;-77
2022/09/09 02:38:16;;;;;;;3.33;2.70;;;14.00;99.90;;;;;;2115585;27;20024;-77
2022/09/09 02:39:28;;;;;;;2.60;2.40;;;14.10;99.90;;;;;;2123583;27;20023;-77
2022/09/09 02:40:28;;;;;;;4.43;2.58;;;14.10;99.90;;;;;;2115289;28;20027;-76
2022/09/09 02:41:37;;;;;;;3.03;2.72;;;14.10;99.90;;;;;;2114797;28;20081;-77
2022/09/09 02:42:51;;;;;;;3.10;2.80;;;14.10;99.90;;;;;;2116062;27;20055;-77
2022/09/09 02:43:54;;;;;;;2.70;2.50;;;14.10;99.90;;;;;;2115615;27;20027;-78
2022/09/09 02:44:55;;;;;;;3.53;2.55;;;14.10;99.90;;;;;;2107893;28;20512;-78
2022/09/09 02:46:02;;;;;;;2.83;2.55;;;14.00;99.90;;;;;;2107080;28;20031;-76
2022/09/09 02:47:12;;;;;;;2.72;2.50;;;14.10;99.90;;;;;;2116208;27;20027;-78
2022/09/09 02:49:01;;;;;;;4.43;2.78;;;14.00;99.90;;;;;;2116973;27;20494;-77
2022/09/09 02:50:24;;;;;;;3.13;2.58;;;14.00;99.90;;;;;;2088130;28;20527;-76
2022/09/09 02:51:49;;;;;;;4.55;2.83;;;14.00;99.90;;;;;;2108102;27;20522;-77
2022/09/09 02:53:01;;;;;;;3.92;2.70;;;14.00;99.90;;;;;;2124155;27;20521;-77
2022/09/09 02:54:22;;;;;;;3.65;2.70;;;13.90;99.90;;;;;;2124485;27;20562;-76
2022/09/09 02:55:42;;;;;;;4.85;2.58;;;13.90;99.90;;;;;;2117810;27;20050;-77
2022/09/09 02:56:52;;;;;;;3.60;2.75;;;13.90;99.90;;;;;;2118464;27;20027;-77
2022/09/09 02:57:56;;;;;;;;;;;13.90;99.90;;;;;;2117528;27;20037;-77
2022/09/09 02:58:57;;;;;;;3.63;2.70;;;13.90;99.90;;;;;;2107306;28;19916;-77
2022/09/09 03:00:01;;;;;;;3.08;2.70;;;13.90;99.90;;;;;;2120872;27;20031;-77
2022/09/09 03:01:02;;;;;;;4.07;2.80;;;13.90;99.90;;;;;;2118694;27;20859;-78
2022/09/09 03:02:04;;;;;;;3.33;2.65;;;13.90;99.90;;;;;;2124237;27;20551;-78
2022/09/09 03:03:08;;;;;;;4.47;2.60;;;13.80;99.90;;;;;;2115936;27;20020;-78
2022/09/09 03:04:09;;;;;;;3.42;2.65;;;13.80;99.90;;;;;;2115484;28;20332;-78
2022/09/09 03:05:10;;;;;;;3.65;2.58;;;13.80;99.90;;;;;;2106710;28;20075;-78
2022/09/09 03:06:11;;;;;;;3.55;2.90;;;13.80;99.90;;;;;;2106770;28;20071;-78
2022/09/09 03:07:13;;;;;;;2.90;2.65;;;13.80;99.90;;;;;;2107438;28;20031;-78
2022/09/09 03:08:16;;;;;;;2.90;2.70;;;13.80;99.90;;;;;;2115375;28;20019;-78
2022/09/09 03:09:18;;;;;;;2.85;2.65;;;13.80;99.90;;;;;;2107145;28;20020;-78
2022/09/09 03:10:19;;;;;;;2.80;2.60;;;13.80;99.90;;;;;;2115568;28;20023;-78
2022/09/09 03:11:19;;;;;;;3.25;2.90;;;13.80;99.90;;;;;;2124464;27;20029;-79
2022/09/09 03:12:20;;;;;;;3.45;2.75;;;13.80;99.90;;;;;;2124136;27;20019;-78
2022/09/09 03:13:21;;;;;;;4.15;3.00;;;13.80;99.90;;;;;;2124312;27;20027;-78
2022/09/09 03:14:24;;;;;;;4.30;3.10;;;13.80;99.90;;;;;;2124015;27;20260;-78
2022/09/09 03:15:29;;;;;;;4.13;2.97;;;13.80;99.90;;;;;;2107190;28;20087;-78
2022/09/09 03:16:30;;;;;;;4.82;2.83;;;13.80;99.90;;;;;;2108199;28;20024;-78
2022/09/09 03:17:31;;;;;;;3.95;3.00;;;13.80;99.90;;;;;;2124134;27;20088;-78
2022/09/09 03:18:32;;;;;;;3.58;2.90;;;13.80;99.90;;;;;;2115688;28;20062;-76
2022/09/09 03:19:34;;;;;;;4.07;3.00;;;13.80;99.90;;;;;;2114148;28;20421;-75
2022/09/09 03:20:34;;;;;;;4.05;2.85;;;13.80;99.90;;;;;;2122797;27;20055;-76
2022/09/09 03:21:35;;;;;;;4.45;3.22;;;13.80;99.90;;;;;;2105577;28;20030;-75
2022/09/09 03:22:40;;;;;;;4.25;3.20;;;13.80;99.90;;;;;;2109280;28;20020;-76
2022/09/09 03:23:41;;;;;;;4.97;3.38;;;13.80;99.90;;;;;;2107570;27;20036;-75
2022/09/09 03:24:42;;;;;;;4.15;3.13;;;13.80;99.90;;;;;;2114452;28;20130;-76
2022/09/09 03:25:50;;;;;;;4.75;3.42;;;13.80;99.90;;;;;;2122543;27;20084;-75
2022/09/09 03:26:55;;;;;;;3.85;3.17;;;13.80;99.90;;;;;;2115549;27;20173;-75
2022/09/09 03:27:57;;;;;;;4.68;3.30;;;13.70;99.90;;;;;;2119329;27;20652;-75
2022/09/09 03:29:00;;;;;;;6.38;3.17;;;13.70;99.90;;;;;;2115174;28;20085;-78
2022/09/09 03:30:03;;;;;;;4.40;3.03;;;13.70;99.90;;;;;;2112215;28;20027;-79
2022/09/09 03:31:05;;;;;;;4.18;3.53;;;13.70;99.90;;;;;;2106694;28;20062;-78
2022/09/09 03:32:12;;;;;;;5.50;3.50;;;13.70;99.90;;;;;;2107341;27;20024;-77
2022/09/09 03:33:14;;;;;;;5.32;3.70;;;13.70;99.90;;;;;;2106157;28;20486;-77
2022/09/09 03:34:15;;;;;;;4.55;3.45;;;13.70;99.90;;;;;;2114470;27;20131;-78
2022/09/09 03:35:16;;;;;;;5.47;3.17;;;13.70;99.90;;;;;;2114553;28;20678;-77
2022/09/09 03:36:17;;;;;;;4.15;3.28;;;13.70;99.90;;;;;;2105913;28;20028;-78
2022/09/09 03:37:21;;;;;;;4.18;3.20;;;13.70;99.90;;;;;;2114584;28;20111;-77
2022/09/09 03:38:24;;;;;;;4.18;3.15;;;13.60;99.90;;;;;;2115231;27;20031;-76
2022/09/09 03:39:25;;;;;;;3.70;3.17;;;13.60;99.90;;;;;;2123979;27;20030;-77
2022/09/09 03:40:26;;;;;;;3.78;3.08;;;13.70;99.90;;;;;;2124527;27;20079;-77
2022/09/09 03:41:27;;;;;;;3.35;2.90;;;13.60;99.90;;;;;;2122443;27;20643;-77
2022/09/09 03:42:27;;;;;;;3.58;2.65;;;13.60;99.90;;;;;;2105821;28;20062;-77
2022/09/09 03:43:29;;;;;;;3.20;2.90;;;13.60;99.90;;;;;;2114344;27;20034;-77
2022/09/09 03:44:30;;;;;;;3.67;2.90;;;13.60;99.90;;;;;;2114420;28;20030;-76
2022/09/09 03:45:31;;;;;;;3.55;2.70;;;13.60;99.90;;;;;;2114338;28;20042;-77
2022/09/09 03:46:33;;;;;;;3.55;3.00;;;13.60;99.90;;;;;;2114207;28;20040;-75
2022/09/09 03:47:34;;;;;;;3.92;3.08;;;13.60;99.90;;;;;;2122477;27;20537;-76
2022/09/09 03:48:39;;;;;;;3.50;3.10;;;13.60;99.90;;;;;;2114116;28;20111;-77
2022/09/09 03:49:40;;;;;;;4.18;3.10;;;13.60;99.90;;;;;;2106518;28;20429;-76
2022/09/09 03:50:48;;;;;;;4.10;2.83;;;13.60;99.90;;;;;;2114638;28;20066;-76
2022/09/09 03:51:49;;;;;;;3.92;2.80;;;13.60;99.90;;;;;;2123043;27;20046;-76
2022/09/09 03:52:50;;;;;;;3.83;2.70;;;13.60;99.90;;;;;;2114178;28;20450;-77
2022/09/09 03:53:56;;;;;;;3.47;3.17;;;13.60;99.90;;;;;;2107078;27;20390;-75
2022/09/09 03:54:57;;;;;;;3.35;2.90;;;13.60;99.90;;;;;;2114237;28;20031;-76
2022/09/09 03:55:59;;;;;;;3.90;2.90;;;13.60;99.90;;;;;;2114320;28;20034;-76
2022/09/09 03:57:02;;;;;;;4.03;3.13;;;13.60;99.90;;;;;;2111827;27;20086;-77
2022/09/09 03:58:02;;;;;;;5.05;2.83;;;13.60;99.90;;;;;;2105433;28;20504;-77
2022/09/09 03:59:04;;;;;;;4.88;2.90;;;13.60;99.90;;;;;;2097059;28;20060;-76
2022/09/09 04:00:06;;;;;;;3.55;2.70;;;13.60;99.90;;;;;;2097787;28;20663;-77
2022/09/09 04:01:17;;;;;;;4.50;3.17;;;13.60;99.90;;;;;;2107446;28;20031;-77
2022/09/09 04:02:18;;;;;;;4.22;2.75;;;13.50;99.90;;;;;;2116481;27;20031;-77
2022/09/09 04:03:19;;;;;;;3.30;3.00;;;13.50;99.90;;;;;;2106226;28;20030;-77
2022/09/09 04:04:20;;;;;;;4.72;3.10;;;13.50;99.90;;;;;;2114859;28;20107;-77
2022/09/09 04:05:21;;;;;;;3.25;2.83;;;13.50;99.90;;;;;;2115850;27;20024;-77
2022/09/09 04:06:22;;;;;;;3.15;2.85;;;13.50;99.90;;;;;;2114162;27;20080;-77
2022/09/09 04:07:23;;;;;;;4.13;3.17;;;13.50;99.90;;;;;;2116493;28;20296;-77
2022/09/09 04:08:25;;;;;;;4.53;2.90;;;13.50;99.90;;;;;;2107580;28;20061;-77
2022/09/09 04:09:26;;;;;;;4.22;3.30;;;13.50;99.90;;;;;;2107705;28;20032;-76
2022/09/09 04:10:27;;;;;;;3.38;3.03;;;13.50;99.90;;;;;;2122290;27;20091;-77
2022/09/09 04:11:29;;;;;;;3.58;3.20;;;13.50;99.90;;;;;;2124788;27;20065;-77
2022/09/09 04:12:32;;;;;;;5.95;3.38;;;13.50;99.90;;;;;;2123929;27;20030;-77
2022/09/09 04:13:35;;;;;;;5.25;2.88;;;13.50;99.90;;;;;;2121822;27;20061;-77
2022/09/09 04:14:36;;;;;;;3.70;3.33;;;13.50;99.90;;;;;;2117166;28;20016;-77
2022/09/09 04:15:40;;;;;;;4.03;2.95;;;13.50;99.90;;;;;;2117070;28;20015;-76
2022/09/09 04:16:44;;;;;;;3.42;3.13;;;13.50;99.90;;;;;;2107221;28;20024;-75
2022/09/09 04:17:46;;;;;;;3.80;3.40;;;13.50;99.90;;;;;;2108877;28;20111;-77
2022/09/09 04:18:48;;;;;;;3.45;3.10;;;13.50;99.90;;;;;;2116609;28;20031;-76
2022/09/09 04:19:50;;;;;;;4.03;3.22;;;13.50;99.90;;;;;;2108583;28;20046;-76
2022/09/09 04:20:52;;;;;;;3.90;2.95;;;13.50;99.90;;;;;;2106467;28;20016;-76
2022/09/09 04:21:56;;;;;;;3.65;3.30;;;13.50;99.90;;;;;;2114913;27;20023;-76
2022/09/09 04:22:57;;;;;;;3.42;3.08;;;13.50;99.90;;;;;;2114890;28;20565;-76
2022/09/09 04:23:58;;;;;;;3.30;3.00;;;13.50;99.90;;;;;;2119872;27;20090;-77
2022/09/09 04:25:00;;;;;;;3.33;3.03;;;13.60;99.90;;;;;;2115046;28;20036;-77
2022/09/09 04:26:03;;;;;;;6.38;3.25;;;13.60;99.90;;;;;;2106972;28;20027;-77
2022/09/09 04:27:05;;;;;;;4.35;3.30;;;13.60;99.90;;;;;;2106726;28;20032;-76
2022/09/09 04:28:09;;;;;;;6.05;3.45;;;13.60;99.90;;;;;;2107211;28;20032;-76
2022/09/09 04:29:10;;;;;;;4.25;3.25;;;13.60;99.90;;;;;;2099096;28;20017;-76
2022/09/09 04:30:12;;;;;;;4.90;3.40;;;13.60;99.90;;;;;;2106294;28;20016;-77
2022/09/09 04:31:19;;;;;;;5.07;3.40;;;13.60;99.90;;;;;;2110420;28;20556;-77
2022/09/09 04:32:21;;;;;;;4.43;3.30;;;13.60;99.90;;;;;;2107122;28;20112;-76
2022/09/09 04:33:27;;;;;;;4.20;3.28;;;13.60;99.90;;;;;;2098299;28;20506;-77
2022/09/09 04:34:29;;;;;;;4.00;3.00;;;13.60;99.90;;;;;;2107509;28;20520;-76
2022/09/09 04:35:30;;;;;;;3.72;3.28;;;13.60;99.90;;;;;;2106609;28;20028;-77
2022/09/09 04:36:32;;;;;;;3.83;3.20;;;13.60;99.90;;;;;;2106362;28;20066;-77
2022/09/09 04:37:35;;;;;;;6.30;3.38;;;13.60;99.90;;;;;;2099686;28;20035;-76
2022/09/09 04:38:36;;;;;;;3.95;3.55;;;13.60;99.90;;;;;;2098641;28;20468;-76
2022/09/09 04:39:37;;;;;;;4.35;3.55;;;13.70;99.90;;;;;;2108690;28;20024;-74
2022/09/09 04:40:42;;;;;;;4.22;3.50;;;13.60;99.90;;;;;;2112569;28;20463;-75
2022/09/09 04:41:42;;;;;;;3.92;2.85;;;13.70;99.90;;;;;;2113631;27;20027;-75
2022/09/09 04:42:44;;;;;;;7.15;3.30;;;13.70;99.90;;;;;;2119614;27;20046;-76
2022/09/09 04:43:47;;;;;;;5.30;3.50;;;13.70;99.90;;;;;;2111416;28;20020;-76
2022/09/09 04:45:10;;;;;;;5.05;3.30;;;13.70;99.90;;;;;;2108437;28;20509;-77
2022/09/09 04:46:11;;;;;;;6.13;3.20;;;13.70;99.90;;;;;;2109667;28;20024;-76
2022/09/09 04:47:14;;;;;;;3.72;3.33;;;13.80;99.90;;;;;;2109696;28;20023;-75
2022/09/09 04:48:15;;;;;;;3.38;3.03;;;13.80;99.90;;;;;;2121288;27;20019;-75
2022/09/09 04:49:15;;;;;;;4.25;3.10;;;13.80;99.90;;;;;;2122729;28;20777;-76
2022/09/09 04:50:18;;;;;;;4.63;3.40;;;13.80;99.90;;;;;;2115131;28;20026;-76
2022/09/09 04:51:21;;;;;;;4.53;3.40;;;13.80;99.90;;;;;;2129338;27;20019;-76
2022/09/09 04:52:23;;;;;;;4.15;3.30;;;13.80;99.90;;;;;;2130429;27;20022;-76
2022/09/09 04:53:25;;;;;;;4.03;3.15;;;13.90;99.90;;;;;;2112974;28;20106;-76
2022/09/09 04:54:27;;;;;;;4.25;2.92;;;13.90;99.90;;;;;;2096912;28;20572;-76
2022/09/09 04:55:28;;;;;;;3.58;3.25;;;13.90;99.90;;;;;;2104738;28;20403;-77
2022/09/09 04:56:29;;;;;;;3.47;3.15;;;13.90;99.90;;;;;;2114134;28;20027;-75
2022/09/09 04:57:32;;;;;;;3.55;3.22;;;13.90;99.90;;;;;;2113669;28;20117;-76
2022/09/09 04:58:34;;;;;;;8.45;3.60;;;13.90;99.90;;;;;;2115083;27;20028;-77
2022/09/09 04:59:34;;;;;;;3.50;3.20;;;13.90;99.90;;;;;;2119890;27;20058;-76
2022/09/09 05:00:37;;;;;;;4.53;3.45;;;13.90;99.90;;;;;;2115581;27;20023;-76
2022/09/09 05:01:40;;;;;;;3.95;3.13;;;14.00;99.90;;;;;;2113554;28;20028;-76
2022/09/09 05:02:42;;;;;;;4.50;3.30;;;14.00;99.90;;;;;;2121942;27;20030;-75
2022/09/09 05:03:45;;;;;;;4.60;3.38;;;14.00;99.90;;;;;;2130490;27;20027;-74
2022/09/09 05:04:47;;;;;;;4.70;3.40;;;14.00;99.90;;;;;;2130019;27;20030;-73
2022/09/09 05:05:48;;;;;;;3.78;3.20;;;14.00;99.90;;;;;;2119848;27;20382;-74
2022/09/09 05:06:50;;;;;;;3.95;3.40;;;14.10;99.90;;;;;;2114252;28;20042;-73
2022/09/09 05:07:50;;;;;;;4.25;3.42;;;14.20;99.90;;;;;;2113186;28;20374;-74
2022/09/09 05:08:51;;;;;;;5.03;3.25;;;14.20;99.90;;;;;;2104956;28;20124;-75
2022/09/09 05:09:56;;;;;;;3.45;3.15;;;14.30;99.90;;;;;;2097629;28;20039;-75
2022/09/09 05:10:59;;;;;;;4.43;3.20;;;14.40;99.90;;;;;;2103038;28;20091;-75
2022/09/09 05:11:59;;;;;;;3.70;3.10;;;14.60;99.90;;;;;;2121996;27;20528;-75
2022/09/09 05:13:06;;;;;;;6.05;3.45;;;14.90;99.90;;;;;;2122239;28;20135;-76
2022/09/09 05:14:07;;;;;;;3.35;2.90;;;15.20;99.90;;;;;;2122001;28;20027;-75
2022/09/09 05:15:09;;;;;;;3.50;3.03;;;15.50;99.90;;;;;;2113333;28;20136;-74
2022/09/09 05:16:11;;;;;;;3.47;2.75;;;15.70;99.90;;;;;;2105380;28;20545;-76
2022/09/09 05:17:13;;;;;;;3.95;2.90;;;15.90;99.90;;;;;;2113542;28;20023;-75
2022/09/09 05:18:14;;;;;;;3.90;3.00;;;16.20;99.90;;;;;;2113697;28;20438;-75
2022/09/09 05:19:15;;;;;;;3.40;2.80;;;16.30;99.90;;;;;;2113254;28;20038;-76
2022/09/09 05:20:19;;;;;;;3.03;2.65;;;16.50;99.90;;;;;;2113529;28;20024;-77
2022/09/09 05:21:22;;;;;;;4.47;2.83;;;16.60;99.90;;;;;;2112928;28;20052;-74
2022/09/09 05:22:23;;;;;;;4.88;2.92;;;16.60;99.90;;;;;;2121368;27;20470;-75
2022/09/09 05:23:26;;;;;;;5.38;2.70;;;16.50;99.90;;;;;;2121053;28;20035;-75
2022/09/09 05:24:27;;;;;;;5.45;3.45;;;16.40;99.90;;;;;;2104865;28;20058;-74
2022/09/09 05:25:31;;;;;;;3.42;3.13;;;16.20;99.90;;;;;;2113211;28;20043;-75
2022/09/09 05:26:32;;;;;;;4.55;3.03;;;16.10;99.90;;;;;;2112931;28;20067;-75
2022/09/09 05:27:35;;;;;;;5.45;3.22;;;16.00;99.90;;;;;;2113348;28;20490;-75
2022/09/09 05:28:36;;;;;;;3.75;2.97;;;15.90;99.90;;;;;;2121395;28;20228;-75
2022/09/09 05:29:38;;;;;;;8.07;3.20;;;15.70;99.90;;;;;;2112947;28;20027;-75
2022/09/09 05:30:40;;;;;;;4.35;3.00;;;15.60;99.90;;;;;;2121473;28;20039;-74
2022/09/09 05:31:41;;;;;;;6.32;3.20;;;15.60;99.90;;;;;;2112510;28;20031;-76
2022/09/09 05:32:47;;;;;;;4.32;3.13;;;15.50;99.90;;;;;;2113679;28;20579;-76
2022/09/09 05:33:49;;;;;;;6.03;3.58;;;15.40;99.90;;;;;;2112955;28;20449;-75
2022/09/09 05:34:51;;;;;;;4.07;3.00;;;15.40;99.90;;;;;;2121639;28;20027;-75
2022/09/09 05:36:05;;;;;;;4.53;3.08;;;15.30;99.90;;;;;;2113229;28;20047;-75
2022/09/09 05:37:07;;;;;;;4.85;3.22;;;15.40;99.90;;;;;;2121340;28;20026;-75
2022/09/09 05:38:08;;;;;;;3.75;3.10;;;15.40;99.90;;;;;;2112667;28;20016;-75
2022/09/09 05:39:08;;;;;;;5.00;2.85;;;15.30;99.90;;;;;;2112810;28;20082;-75
2022/09/09 05:40:10;;;;;;;3.33;2.90;;;15.40;99.90;;;;;;2113527;28;20028;-74
2022/09/09 05:41:12;;;;;;;5.40;2.88;;;15.40;99.90;;;;;;2112848;28;20064;-76
2022/09/09 05:42:12;;;;;;;4.72;2.92;;;15.50;99.90;;;;;;2121372;28;20114;-74
2022/09/09 05:43:13;;;;;;;4.93;2.88;;;15.40;99.90;;;;;;2121588;28;20057;-77
2022/09/09 05:44:23;;;;;;;3.63;2.72;;;15.40;99.90;;;;;;2113186;28;20786;-75
2022/09/09 05:45:24;;;;;;;4.25;2.97;;;15.50;99.90;;;;;;2122343;28;20068;-75
2022/09/09 05:46:25;;;;;;;4.53;2.97;;;15.50;99.90;;;;;;2122590;28;20174;-76
2022/09/09 05:47:27;;;;;;;4.07;2.78;;;15.50;99.90;;;;;;2121574;28;20037;-77
2022/09/09 05:48:34;;;;;;;5.90;3.30;;;15.50;99.90;;;;;;2121746;28;20072;-77
2022/09/09 05:49:34;;;;;;;3.67;3.35;;;15.50;99.90;;;;;;2123220;27;20032;-77
2022/09/09 05:50:35;;;;;;;7.20;3.30;;;15.50;99.90;;;;;;2131636;27;20034;-77
2022/09/09 05:51:37;;;;;;;5.95;3.08;;;15.60;99.90;;;;;;2132371;27;20026;-77
2022/09/09 05:52:44;;;;;;;4.65;3.35;;;15.60;99.90;;;;;;2126256;27;20533;-77
2022/09/09 05:53:45;;;;;;;8.25;3.40;;;15.60;99.90;;;;;;2131100;27;20034;-77